Time;durP1;ratioP1;P1;durP2;ratioP2;P2;SDS_P1;SDS_P2;PMS_P1;PMS_P2;Temp;Humidity;BMP_temperature;BMP_pressure;BME280_temperature;BME280_humidity;BME280_pressure;Samples;Min_cycle;Max_cycle;Signal;HPM_P1;HPM_P2
2023/07/13 00:02:08;;;;;;;4.25;0.88;;;;;;;18.47;42.34;100395.56;20943849;28;20203;-76
2023/07/13 00:12:34;;;;;;;6.07;1.02;;;;;;;19.11;39.48;100404.34;20936848;28;20227;-77
2023/07/13 00:22:37;;;;;;;4.10;0.73;;;;;;;18.84;40.10;100398.66;20920901;28;20583;-76
2023/07/13 00:32:39;;;;;;;3.17;0.63;;;;;;;18.33;41.13;100398.19;20946180;28;20236;-76
2023/07/13 00:42:42;;;;;;;4.18;0.73;;;;;;;18.41;40.16;100391.41;20969868;28;20239;-76
2023/07/13 00:52:47;;;;;;;5.50;1.00;;;;;;;18.33;40.01;100397.34;20970401;28;20226;-76
2023/07/13 01:02:50;;;;;;;3.72;0.90;;;;;;;18.04;40.35;100388.31;20942284;28;20203;-76
2023/07/13 01:12:53;;;;;;;2.05;0.98;;;;;;;18.15;40.25;100385.66;20949616;28;20291;-76
2023/07/13 01:22:59;;;;;;;9.40;1.52;;;;;;;17.74;41.74;100390.97;20946925;28;20191;-77
2023/07/13 01:33:04;;;;;;;3.65;0.90;;;;;;;17.80;40.97;100395.13;20961439;28;20284;-77
2023/07/13 01:43:08;;;;;;;8.48;1.05;;;;;;;17.75;41.12;100392.63;20981149;28;20195;-77
2023/07/13 01:53:10;;;;;;;4.30;0.80;;;;;;;17.46;41.68;100399.72;20958266;28;20230;-77
2023/07/13 02:03:17;;;;;;;3.90;1.08;;;;;;;17.37;41.93;100409.69;20948816;28;20257;-76
2023/07/13 02:13:20;;;;;;;2.60;0.75;;;;;;;17.47;41.57;100404.22;20951518;28;20336;-77
2023/07/13 02:23:23;;;;;;;5.10;0.80;;;;;;;17.54;41.58;100400.69;20965706;28;20187;-77
2023/07/13 02:33:26;;;;;;;2.88;1.00;;;;;;;17.18;42.28;100404.78;20966091;28;20276;-76
2023/07/13 02:43:29;;;;;;;3.95;0.60;;;;;;;17.43;42.88;100406.16;20965414;28;20595;-77
2023/07/13 02:53:32;;;;;;;4.75;1.00;;;;;;;17.07;42.75;100407.38;20964801;28;20265;-78
2023/07/13 03:03:34;;;;;;;7.18;1.33;;;;;;;16.86;43.46;100412.56;20952416;28;20912;-77
2023/07/13 03:13:38;;;;;;;1.23;0.65;;;;;;;17.20;42.67;100416.59;20953182;28;20227;-79
2023/07/13 03:23:41;;;;;;;3.10;0.73;;;;;;;16.54;44.22;100413.81;20945604;28;20199;-79
2023/07/13 03:33:44;;;;;;;1.43;0.50;;;;;;;16.86;43.95;100423.94;20939750;28;20226;-77
2023/07/13 03:43:48;;;;;;;7.20;1.02;;;;;;;16.33;45.52;100433.94;20952412;28;20199;-78
2023/07/13 03:53:53;;;;;;;2.85;0.63;;;;;;;16.74;44.96;100446.81;20950176;28;20223;-79
2023/07/13 04:03:57;;;;;;;5.90;1.00;;;;;;;16.43;45.87;100451.25;20912886;28;20217;-79
2023/07/13 04:14:06;;;;;;;3.40;0.90;;;;;;;16.37;46.61;100458.38;20914351;28;20306;-78
2023/07/13 04:24:09;;;;;;;8.55;1.38;;;;;;;16.99;46.05;100451.06;20950553;28;20195;-80
2023/07/13 04:34:12;;;;;;;5.93;1.15;;;;;;;16.59;46.80;100470.34;20950607;28;20223;-78
2023/07/13 04:44:14;;;;;;;3.63;1.02;;;;;;;16.46;47.25;100473.25;20971679;28;20580;-79
2023/07/13 04:54:16;;;;;;;3.72;0.88;;;;;;;16.82;46.85;100471.34;20950896;28;20215;-80
2023/07/13 05:04:19;;;;;;;6.22;1.08;;;;;;;16.43;47.91;100478.84;20923356;28;20203;-79
2023/07/13 05:14:21;;;;;;;3.00;0.77;;;;;;;17.01;46.76;100491.31;20953945;28;20293;-80
2023/07/13 05:24:24;;;;;;;2.78;0.85;;;;;;;16.81;48.26;100496.09;21011199;28;20194;-79
2023/07/13 05:34:27;;;;;;;6.55;1.40;;;;;;;16.99;48.22;100510.78;20965385;28;20519;-80
2023/07/13 05:44:30;;;;;;;3.83;1.25;;;;;;;16.58;49.96;100515.00;20940175;28;20191;-80
2023/07/13 05:54:32;;;;;;;5.82;1.27;;;;;;;17.09;48.83;100518.72;20962042;28;20273;-80
2023/07/13 06:04:35;;;;;;;6.05;1.27;;;;;;;17.06;48.52;100513.78;20931796;28;20204;-80
2023/07/13 06:14:38;;;;;;;5.18;1.23;;;;;;;17.25;48.57;100520.75;20944508;28;20281;-80
2023/07/13 06:24:40;;;;;;;8.43;2.15;;;;;;;17.39;48.96;100529.63;20944121;28;20461;-80
2023/07/13 06:34:43;;;;;;;8.80;2.00;;;;;;;16.89;50.01;100541.78;20966742;28;20610;-80
2023/07/13 06:44:45;;;;;;;7.03;2.08;;;;;;;17.70;49.14;100549.44;20943979;28;20265;-81
2023/07/13 06:54:48;;;;;;;7.65;1.52;;;;;;;16.90;50.35;100557.59;20943612;28;20282;-81
2023/07/13 07:04:50;;;;;;;6.88;1.60;;;;;;;17.42;49.33;100572.38;20937744;28;20187;-81
2023/07/13 07:14:53;;;;;;;10.73;2.55;;;;;;;18.82;47.14;100565.63;20937878;28;20215;-81
2023/07/13 07:24:56;;;;;;;8.52;2.13;;;;;;;18.32;47.71;100572.38;20945909;28;20268;-81
2023/07/13 07:34:59;;;;;;;8.65;2.05;;;;;;;19.11;45.90;100569.78;20946737;28;20264;-80
2023/07/13 07:45:01;;;;;;;9.40;1.98;;;;;;;18.64;46.58;100573.84;20957939;28;20213;-81
2023/07/13 07:55:06;;;;;;;6.45;1.73;;;;;;;18.81;45.16;100573.34;20951043;28;20287;-81
2023/07/13 08:05:12;;;;;;;6.05;1.58;;;;;;;19.49;45.54;100565.94;20944165;28;20195;-81
2023/07/13 08:15:20;;;;;;;5.60;1.80;;;;;;;20.05;43.13;100565.97;20954868;28;20223;-80
2023/07/13 08:25:22;;;;;;;6.85;1.95;;;;;;;18.98;44.58;100569.16;20943405;28;20199;-81
2023/07/13 08:35:25;;;;;;;6.47;1.45;;;;;;;18.85;44.63;100562.00;20943803;28;20502;-81
2023/07/13 08:45:47;;;;;;;5.03;1.73;;;;;;;20.18;42.61;100558.78;20957314;28;20495;-81
2023/07/13 08:55:55;;;;;;;3.70;1.40;;;;;;;19.95;42.66;100561.75;20964327;28;20219;-81
2023/07/13 09:05:58;;;;;;;6.97;1.83;;;;;;;19.90;43.33;100559.22;20958865;28;20187;-81
2023/07/13 09:16:03;;;;;;;5.10;1.75;;;;;;;19.96;42.56;100569.13;20973815;28;20284;-81
2023/07/13 09:26:20;;;;;;;5.55;1.40;;;;;;;20.69;41.07;100570.44;20972243;28;20276;-81
2023/07/13 09:36:34;;;;;;;3.47;1.15;;;;;;;20.71;41.26;100576.59;20955808;28;20215;-80
2023/07/13 09:46:38;;;;;;;4.65;1.75;;;;;;;20.55;41.07;100584.53;20954467;28;20495;-81
2023/07/13 09:56:40;;;;;;;5.80;1.10;;;;;;;20.88;41.30;100568.59;20970684;28;20456;-81
2023/07/13 10:06:45;;;;;;;5.65;1.65;;;;;;;21.44;39.45;100562.53;20969741;28;20250;-80
2023/07/13 10:16:53;;;;;;;5.68;1.60;;;;;;;21.60;38.71;100570.81;20938652;28;20252;-81
2023/07/13 10:27:18;;;;;;;4.00;1.42;;;;;;;21.50;39.76;100583.84;20946595;28;20203;-80
2023/07/13 10:37:40;;;;;;;3.60;1.15;;;;;;;21.78;37.60;100574.63;20947741;28;20223;-80
2023/07/13 10:47:44;;;;;;;3.55;1.50;;;;;;;21.61;37.80;100579.03;20950368;28;20529;-81
2023/07/13 10:57:46;;;;;;;6.65;1.73;;;;;;;21.91;37.73;100593.16;20940441;28;20226;-80
2023/07/13 11:07:55;;;;;;;4.57;1.40;;;;;;;21.44;39.67;100594.03;20939437;28;20196;-80
2023/07/13 11:18:02;;;;;;;4.22;1.33;;;;;;;22.08;38.13;100598.16;20934672;28;20295;-81
2023/07/13 11:28:05;;;;;;;6.68;1.65;;;;;;;23.25;35.83;100597.72;20942934;28;20503;-81
2023/07/13 11:38:38;;;;;;;2.97;0.93;;;;;;;22.62;35.81;100589.78;20938017;28;20646;-80
2023/07/13 11:48:42;;;;;;;2.15;1.15;;;;;;;22.17;35.49;100586.34;20941147;28;20261;-81
2023/07/13 11:58:55;;;;;;;4.45;1.30;;;;;;;23.28;33.59;100573.09;20953901;28;20223;-81
2023/07/13 12:08:59;;;;;;;3.10;1.55;;;;;;;23.66;34.28;100562.81;20963424;28;20537;-80
2023/07/13 12:19:02;;;;;;;2.92;1.00;;;;;;;22.54;33.83;100586.09;20928181;28;20554;-81
2023/07/13 12:29:06;;;;;;;5.57;1.30;;;;;;;23.68;31.86;100571.84;20925798;28;20217;-81
2023/07/13 12:39:29;;;;;;;3.58;1.27;;;;;;;24.08;31.37;100554.09;20953551;28;20226;-80
2023/07/13 12:49:34;;;;;;;5.32;0.90;;;;;;;24.19;30.49;100560.63;20969033;28;20215;-80
2023/07/13 12:59:38;;;;;;;1.80;1.00;;;;;;;22.78;31.80;100556.66;20955875;28;20643;-80
2023/07/13 13:09:40;;;;;;;4.20;1.10;;;;;;;23.76;31.51;100550.50;20956000;28;20222;-80
2023/07/13 13:19:43;;;;;;;3.72;1.20;;;;;;;23.39;32.37;100568.16;20966411;28;20227;-80
2023/07/13 13:29:46;;;;;;;3.92;1.00;;;;;;;23.22;31.02;100572.72;20955645;28;20253;-80
2023/07/13 13:39:50;;;;;;;4.03;1.05;;;;;;;23.10;31.73;100596.09;20944764;28;20211;-80
2023/07/13 13:50:17;;;;;;;2.90;1.20;;;;;;;19.56;42.06;100668.84;20970881;28;20638;-80
2023/07/13 14:00:20;;;;;;;6.50;1.73;;;;;;;19.13;45.38;100673.75;20938632;28;20283;-80
2023/07/13 14:10:23;;;;;;;4.05;2.15;;;;;;;18.17;52.09;100676.63;20952761;28;20264;-80
2023/07/13 14:20:25;;;;;;;4.20;1.42;;;;;;;20.29;45.56;100667.50;20969205;28;20615;-80
2023/07/13 14:30:28;;;;;;;2.85;1.40;;;;;;;20.84;44.18;100653.53;20965334;28;20253;-80
2023/07/13 14:40:31;;;;;;;4.85;2.53;;;;;;;21.28;42.98;100645.84;20944271;28;20219;-80
2023/07/13 14:50:35;;;;;;;4.18;2.00;;;;;;;21.14;43.01;100651.41;20973245;28;20218;-80
2023/07/13 15:00:37;;;;;;;9.40;3.67;;;;;;;18.96;59.71;100694.22;20919471;28;20224;-82
2023/07/13 15:10:40;;;;;;;5.35;3.70;;;;;;;19.75;61.10;100676.47;20935592;28;20220;-81
2023/07/13 15:20:47;;;;;;;3.80;1.95;;;;;;;19.84;53.25;100657.88;20918548;28;20241;-76
2023/07/13 15:30:54;;;;;;;7.60;3.25;;;;;;;20.30;54.97;100660.59;20948946;28;20249;-78
2023/07/13 15:40:57;;;;;;;7.00;3.28;;;;;;;20.68;53.31;100663.16;20957168;28;20619;-79
2023/07/13 15:51:02;;;;;;;4.97;2.97;;;;;;;19.76;59.68;100661.81;20939153;28;20210;-80
2023/07/13 16:01:05;;;;;;;6.35;3.72;;;;;;;19.31;61.60;100652.13;20886074;28;20219;-80
2023/07/13 16:11:16;;;;;;;6.13;3.75;;;;;;;20.06;62.09;100658.22;20911057;28;20227;-82
2023/07/13 16:21:20;;;;;;;4.63;3.00;;;;;;;18.27;63.49;100738.72;20910727;28;20219;-76
2023/07/13 16:31:23;;;;;;;3.63;1.20;;;;;;;17.67;62.59;100738.03;20945048;28;20273;-83
2023/07/13 16:41:26;;;;;;;5.10;2.17;;;;;;;18.01;64.50;100715.72;20926683;28;20216;-82
2023/07/13 16:51:29;;;;;;;4.40;2.17;;;;;;;18.07;65.42;100711.38;20939355;28;20223;-87
2023/07/13 17:01:32;;;;;;;6.68;2.70;;;;;;;18.23;66.02;100715.00;20956396;28;20272;-86
2023/07/13 17:11:39;;;;;;;3.53;2.47;;;;;;;18.46;65.31;100707.38;20955379;28;20284;-82
2023/07/13 17:21:44;;;;;;;3.22;2.92;;;;;;;18.60;66.49;100699.16;20973279;28;20630;-83
2023/07/13 17:31:51;;;;;;;5.90;3.55;;;;;;;18.57;66.44;100691.38;20936646;28;20203;-84
2023/07/13 17:41:54;;;;;;;9.32;4.00;;;;;;;18.73;65.64;100688.44;20963765;28;20218;-83
2023/07/13 17:51:58;;;;;;;7.93;4.55;;;;;;;18.84;66.19;100700.88;20913606;28;20280;-83
2023/07/13 18:02:01;;;;;;;8.60;4.97;;;;;;;18.61;66.89;100703.69;20916371;28;20292;-80
2023/07/13 18:12:04;;;;;;;8.27;4.68;;;;;;;18.76;67.13;100692.56;20958188;28;20252;-79
2023/07/13 18:22:15;;;;;;;5.85;3.97;;;;;;;19.07;64.78;100695.25;20936736;28;20218;-82
2023/07/13 18:32:22;;;;;;;4.55;4.00;;;;;;;19.06;63.97;100699.31;20909310;28;20198;-83
2023/07/13 18:42:26;;;;;;;6.60;3.40;;;;;;;18.90;63.20;100701.41;20927456;28;20227;-78
2023/07/13 18:52:30;;;;;;;3.95;3.10;;;;;;;18.84;63.56;100711.47;20920526;28;20242;-84
2023/07/13 19:02:32;;;;;;;5.47;3.15;;;;;;;19.16;61.21;100707.22;20920061;28;20215;-79
2023/07/13 19:12:35;;;;;;;6.40;3.35;;;;;;;18.97;62.17;100710.94;20937207;28;20251;-81
2023/07/13 19:22:38;;;;;;;7.10;3.60;;;;;;;18.85;62.07;100713.13;20913251;28;20327;-83
2023/07/13 19:32:43;;;;;;;7.25;3.70;;;;;;;18.44;63.16;100721.22;20936596;28;20221;-80
2023/07/13 19:42:46;;;;;;;6.50;3.20;;;;;;;18.33;62.92;100736.38;20922825;28;20323;-77
2023/07/13 19:52:55;;;;;;;8.68;3.63;;;;;;;18.35;62.59;100742.53;20938665;28;20696;-77
2023/07/13 20:02:58;;;;;;;4.95;3.50;;;;;;;18.32;62.46;100755.50;20959307;28;20223;-77
2023/07/13 20:13:01;;;;;;;5.97;3.40;;;;;;;18.41;62.16;100767.53;20942562;28;20688;-77
2023/07/13 20:23:10;;;;;;;8.00;4.60;;;;;;;18.51;60.45;100769.81;20945256;28;20345;-77
2023/07/13 20:33:18;;;;;;;4.07;2.58;;;;;;;18.10;58.84;100779.81;20863535;28;20192;-77
2023/07/13 20:43:21;;;;;;;5.57;3.08;;;;;;;17.91;59.29;100766.31;20945745;28;20207;-79
2023/07/13 20:53:25;;;;;;;8.98;3.13;;;;;;;18.17;58.53;100762.09;20932400;28;20787;-78
2023/07/13 21:03:28;;;;;;;2.87;2.13;;;;;;;17.78;59.46;100776.16;20943796;28;20469;-77
2023/07/13 21:13:30;;;;;;;5.45;2.55;;;;;;;17.46;60.29;100785.84;20975374;28;20219;-77
2023/07/13 21:23:36;;;;;;;5.90;2.20;;;;;;;17.92;60.01;100779.38;20975357;28;20199;-77
2023/07/13 21:33:39;;;;;;;5.47;2.50;;;;;;;17.91;60.27;100783.41;20953249;28;20550;-76
2023/07/13 21:43:41;;;;;;;4.90;2.10;;;;;;;17.80;57.91;100775.75;20969441;28;20196;-78
2023/07/13 21:53:44;;;;;;;4.35;2.10;;;;;;;17.50;59.19;100783.94;20964717;28;20284;-78
2023/07/13 22:03:50;;;;;;;4.70;2.30;;;;;;;17.20;60.80;100787.16;20969979;28;20257;-76
2023/07/13 22:13:53;;;;;;;7.93;2.88;;;;;;;17.77;58.41;100777.34;20955859;28;20228;-77
2023/07/13 22:23:57;;;;;;;6.18;2.40;;;;;;;17.76;60.12;100777.72;20952836;28;20580;-78
2023/07/13 22:33:59;;;;;;;3.90;2.58;;;;;;;17.13;59.67;100786.13;20951730;28;20219;-78
2023/07/13 22:44:02;;;;;;;3.03;2.20;;;;;;;17.34;59.13;100774.53;20962907;28;20249;-79
2023/07/13 22:54:12;;;;;;;5.97;2.42;;;;;;;16.99;60.01;100783.69;20980379;28;20223;-76
2023/07/13 23:04:24;;;;;;;5.70;3.05;;;;;;;17.13;59.75;100769.91;20953800;28;20249;-77
2023/07/13 23:14:27;;;;;;;6.18;3.05;;;;;;;16.92;61.82;100774.13;20940350;28;20527;-76
2023/07/13 23:24:34;;;;;;;7.20;3.20;;;;;;;16.79;62.05;100776.19;20952283;28;20595;-78
2023/07/13 23:34:36;;;;;;;6.03;2.97;;;;;;;16.66;62.11;100777.41;20959510;28;20264;-78
2023/07/13 23:44:39;;;;;;;3.67;3.17;;;;;;;16.49;62.44;100761.47;20957446;28;20445;-77
2023/07/13 23:54:41;;;;;;;8.30;3.72;;;;;;;16.97;60.85;100748.28;20960637;28;20507;-78
